createdAt,value
2017-12-17T00:00:25.955Z,1015.39
2017-12-17T00:01:47.908Z,1015.45
2017-12-17T00:03:09.075Z,1015.41
2017-12-17T00:04:30.520Z,1015.4
2017-12-17T00:05:52.543Z,1015.43
2017-12-17T00:07:14.612Z,1015.35
2017-12-17T00:08:36.367Z,1015.36
2017-12-17T00:09:58.340Z,1015.26
2017-12-17T00:11:20.335Z,1015.35
2017-12-17T00:12:42.330Z,1015.33
2017-12-17T00:14:04.565Z,1015.31
2017-12-17T00:15:26.391Z,1015.29
2017-12-17T00:16:48.467Z,1015.29
2017-12-17T00:18:10.185Z,1015.35
2017-12-17T00:19:31.905Z,1015.38
2017-12-17T00:20:54.169Z,1015.41
2017-12-17T00:22:16.152Z,1015.37
2017-12-17T00:23:37.954Z,1015.4
2017-12-17T00:24:59.652Z,1015.33
2017-12-17T00:26:21.756Z,1015.33
2017-12-17T00:27:43.462Z,1015.37
2017-12-17T00:29:05.429Z,1015.35
2017-12-17T00:30:27.992Z,1015.36
2017-12-17T00:31:50.280Z,1015.41
2017-12-17T00:33:12.243Z,1015.48
2017-12-17T00:34:33.665Z,1015.48
2017-12-17T00:35:55.642Z,1015.51
2017-12-17T00:37:17.184Z,1015.53
2017-12-17T00:38:38.636Z,1015.55
2017-12-17T00:40:00.714Z,1015.58
2017-12-17T00:41:22.496Z,1015.64
2017-12-17T00:42:44.549Z,1015.68
2017-12-17T00:44:06.294Z,1015.72
2017-12-17T00:45:28.259Z,1015.68
2017-12-17T00:46:50.582Z,1015.71
2017-12-17T00:48:12.625Z,1015.74
2017-12-17T00:49:34.586Z,1015.72
2017-12-17T00:50:56.566Z,1015.82
2017-12-17T00:52:18.553Z,1015.79
2017-12-17T00:53:40.252Z,1015.82
2017-12-17T00:55:01.746Z,1015.77
2017-12-17T00:56:23.727Z,1015.85
2017-12-17T00:57:45.958Z,1015.81
2017-12-17T00:59:07.996Z,1015.79
2017-12-17T01:00:29.403Z,1015.75
2017-12-17T01:01:51.684Z,1015.75
2017-12-17T01:03:13.948Z,1015.78
2017-12-17T01:04:35.689Z,1015.76
2017-12-17T01:05:56.935Z,1015.75
2017-12-17T01:07:19.204Z,1015.77
2017-12-17T01:08:41.245Z,1015.83
2017-12-17T01:10:02.833Z,1015.84
2017-12-17T01:11:24.254Z,1015.83
2017-12-17T01:12:46.219Z,1015.79
2017-12-17T01:14:08.225Z,1015.79
2017-12-17T01:15:30.187Z,1015.83
2017-12-17T01:16:52.266Z,1015.85
2017-12-17T01:18:14.242Z,1015.83
2017-12-17T01:19:35.926Z,1015.83
2017-12-17T01:20:57.735Z,1015.82
2017-12-17T01:22:19.164Z,1015.85
2017-12-17T01:23:41.405Z,1015.94
2017-12-17T01:25:03.139Z,1015.99
2017-12-17T01:26:24.954Z,1015.97
2017-12-17T01:27:46.378Z,1016.02
2017-12-17T01:29:08.085Z,1016.01
2017-12-17T01:30:29.304Z,1016.08
2017-12-17T01:31:51.400Z,1016.07
2017-12-17T01:33:13.113Z,1016.08
2017-12-17T01:34:34.807Z,1016.11
2017-12-17T01:35:56.763Z,1016.08
2017-12-17T01:37:18.458Z,1016.11
2017-12-17T01:38:40.418Z,1016.06
2017-12-17T01:40:02.657Z,1016.07
2017-12-17T01:41:24.369Z,1016.08
2017-12-17T01:42:46.075Z,1016.05
2017-12-17T01:44:07.773Z,1016.08
2017-12-17T01:45:29.458Z,1016.05
2017-12-17T01:46:51.509Z,1016.06
2017-12-17T01:48:13.585Z,1016.05
2017-12-17T01:49:35.282Z,1016.08
2017-12-17T01:50:57.385Z,1016.07
2017-12-17T01:52:19.414Z,1016.1
2017-12-17T01:53:40.564Z,1016.14
2017-12-17T01:55:02.515Z,1016.17
2017-12-17T01:56:24.212Z,1016.09
2017-12-17T01:57:45.773Z,1016.1
2017-12-17T01:59:08.169Z,1016.14
2017-12-17T02:00:30.425Z,1016.16
2017-12-17T02:01:52.385Z,1016.13
2017-12-17T02:03:14.469Z,1016.17
2017-12-17T02:04:36.184Z,1016.18
2017-12-17T02:05:57.893Z,1016.21
2017-12-17T02:07:19.634Z,1016.21
2017-12-17T02:08:41.322Z,1016.23
2017-12-17T02:10:03.034Z,1016.24
2017-12-17T02:11:25.020Z,1016.26
2017-12-17T02:12:46.719Z,1016.3
2017-12-17T02:14:08.818Z,1016.24
2017-12-17T02:15:30.345Z,1016.32
2017-12-17T02:16:52.573Z,1016.24
2017-12-17T02:18:14.835Z,1016.23
2017-12-17T02:19:36.526Z,1016.23
2017-12-17T02:20:58.486Z,1016.24
2017-12-17T02:22:19.906Z,1016.23
2017-12-17T02:23:41.886Z,1016.21
2017-12-17T02:25:03.983Z,1016.2
2017-12-17T02:26:25.990Z,1016.26
2017-12-17T02:27:47.945Z,1016.28
2017-12-17T02:29:09.811Z,1016.27
2017-12-17T02:30:31.764Z,1016.25
2017-12-17T02:31:53.765Z,1016.27
2017-12-17T02:33:16.026Z,1016.3
2017-12-17T02:34:38.288Z,1016.27
2017-12-17T02:36:00.926Z,1016.31
2017-12-17T02:37:22.794Z,1016.32
2017-12-17T02:38:44.482Z,1016.35
2017-12-17T02:40:06.762Z,1016.42
2017-12-17T02:41:29.144Z,1016.46
2017-12-17T02:42:51.108Z,1016.48
2017-12-17T02:44:12.665Z,1016.53
2017-12-17T02:45:34.390Z,1016.49
2017-12-17T02:46:55.811Z,1016.5
2017-12-17T02:48:18.255Z,1016.49
2017-12-17T02:49:39.955Z,1016.49
2017-12-17T02:51:01.654Z,1016.46
2017-12-17T02:52:23.095Z,1016.56
2017-12-17T02:53:44.528Z,1016.54
2017-12-17T02:55:05.791Z,1016.49
2017-12-17T02:56:28.027Z,1016.53
2017-12-17T02:57:49.991Z,1016.55
2017-12-17T02:59:11.930Z,1016.58
2017-12-17T03:00:33.885Z,1016.59
2017-12-17T03:01:55.565Z,1016.62
2017-12-17T03:03:17.370Z,1016.67
2017-12-17T03:04:39.118Z,1016.7
2017-12-17T03:06:01.074Z,1016.71
2017-12-17T03:07:23.293Z,1016.74
2017-12-17T03:08:45.349Z,1016.76
2017-12-17T03:10:07.303Z,1016.77
2017-12-17T03:11:29.275Z,1016.74
2017-12-17T03:12:51.237Z,1016.7
2017-12-17T03:14:12.925Z,1016.79
2017-12-17T03:15:34.999Z,1016.78
2017-12-17T03:16:56.955Z,1016.82
2017-12-17T03:18:18.966Z,1016.85
2017-12-17T03:19:40.959Z,1016.88
2017-12-17T03:21:02.643Z,1016.87
2017-12-17T03:22:24.344Z,1016.87
2017-12-17T03:23:46.584Z,1016.92
2017-12-17T03:25:08.544Z,1016.88
2017-12-17T03:26:30.524Z,1016.92
2017-12-17T03:27:52.346Z,1016.84
2017-12-17T03:29:14.025Z,1016.85
2017-12-17T03:30:35.815Z,1016.86
2017-12-17T03:31:57.244Z,1016.89
2017-12-17T03:33:18.139Z,1016.85
2017-12-17T03:34:39.901Z,1016.95
2017-12-17T03:36:01.856Z,1016.94
2017-12-17T03:37:23.531Z,1016.91
2017-12-17T03:38:45.224Z,1016.93
2017-12-17T03:40:06.656Z,1016.91
2017-12-17T03:41:28.349Z,1016.92
2017-12-17T03:42:50.335Z,1016.91
2017-12-17T03:44:12.421Z,1016.95
2017-12-17T03:45:34.386Z,1016.99
2017-12-17T03:46:56.389Z,1017.01
2017-12-17T03:48:17.874Z,1017.05
2017-12-17T03:49:39.882Z,1017.04
2017-12-17T03:51:01.566Z,1017.05
2017-12-17T03:52:23.522Z,1017.06
2017-12-17T03:53:44.942Z,1017.1
2017-12-17T03:55:06.917Z,1017.1
2017-12-17T03:56:28.887Z,1017.08
2017-12-17T03:57:51.041Z,1017.11
2017-12-17T03:59:12.788Z,1017.14
2017-12-17T04:00:35.008Z,1017.16
2017-12-17T04:01:56.508Z,1017.18
2017-12-17T04:03:18.501Z,1017.17
2017-12-17T04:04:40.014Z,1017.23
2017-12-17T04:06:02.302Z,1017.29
2017-12-17T04:07:24.034Z,1017.28
2017-12-17T04:08:46.298Z,1017.36
2017-12-17T04:10:08.294Z,1017.42
2017-12-17T04:11:29.986Z,1017.44
2017-12-17T04:12:51.705Z,1017.4
2017-12-17T04:14:13.952Z,1017.55
2017-12-17T04:15:35.665Z,1017.55
2017-12-17T04:16:57.652Z,1017.6
2017-12-17T04:18:19.143Z,1017.59
2017-12-17T04:19:41.194Z,1017.65
2017-12-17T04:21:03.581Z,1017.74
2017-12-17T04:22:25.263Z,1017.77
2017-12-17T04:23:46.684Z,1017.78
2017-12-17T04:25:08.644Z,1017.79
2017-12-17T04:26:30.652Z,1017.83
2017-12-17T04:27:52.664Z,1017.83
2017-12-17T04:29:14.094Z,1017.83
2017-12-17T04:30:35.653Z,1017.82
2017-12-17T04:31:57.094Z,1017.82
2017-12-17T04:33:19.335Z,1017.83
2017-12-17T04:34:41.009Z,1017.84
2017-12-17T04:36:03.532Z,1017.89
2017-12-17T04:37:25.071Z,1017.87
2017-12-17T04:38:47.430Z,1017.88
2017-12-17T04:40:09.639Z,1017.85
2017-12-17T04:41:31.416Z,1017.9
2017-12-17T04:42:53.104Z,1017.89
2017-12-17T04:44:14.801Z,1017.9
2017-12-17T04:45:35.944Z,1017.9
2017-12-17T04:46:58.183Z,1017.96
2017-12-17T04:48:20.133Z,1017.95
2017-12-17T04:49:42.403Z,1017.94
2017-12-17T04:51:04.092Z,1017.92
2017-12-17T04:52:25.512Z,1017.93
2017-12-17T04:53:46.929Z,1017.92
2017-12-17T04:55:08.623Z,1018
2017-12-17T04:56:30.405Z,1018.01
2017-12-17T04:57:52.083Z,1018.04
2017-12-17T04:59:13.247Z,1018.05
2017-12-17T05:00:35.219Z,1018.04
2017-12-17T05:01:57.324Z,1018.07
2017-12-17T05:03:19.468Z,1018.1
2017-12-17T05:04:41.724Z,1018.13
2017-12-17T05:06:03.224Z,1018.11
2017-12-17T05:07:25.762Z,1018.16
2017-12-17T05:08:47.504Z,1018.15
2017-12-17T05:10:09.570Z,1018.16
2017-12-17T05:11:31.302Z,1018.18
2017-12-17T05:12:53.133Z,1018.17
2017-12-17T05:14:14.559Z,1018.22
2017-12-17T05:15:36.473Z,1018.26
2017-12-17T05:16:57.896Z,1018.33
2017-12-17T05:18:19.056Z,1018.3
2017-12-17T05:19:41.072Z,1018.36
2017-12-17T05:21:02.596Z,1018.4
2017-12-17T05:22:24.342Z,1018.41
2017-12-17T05:23:45.924Z,1018.44
2017-12-17T05:25:07.714Z,1018.49
2017-12-17T05:26:29.743Z,1018.52
2017-12-17T05:27:51.160Z,1018.54
2017-12-17T05:29:13.123Z,1018.54
2017-12-17T05:30:34.823Z,1018.55
2017-12-17T05:31:57.038Z,1018.6
2017-12-17T05:33:18.469Z,1018.58
2017-12-17T05:34:40.414Z,1018.62
2017-12-17T05:36:02.118Z,1018.62
2017-12-17T05:37:24.223Z,1018.63
2017-12-17T05:38:45.392Z,1018.63
2017-12-17T05:40:07.102Z,1018.68
2017-12-17T05:41:28.636Z,1018.66
2017-12-17T05:42:50.644Z,1018.7
2017-12-17T05:44:12.612Z,1018.75
2017-12-17T05:45:34.087Z,1018.76
2017-12-17T05:46:56.064Z,1018.79
2017-12-17T05:48:18.062Z,1018.81
2017-12-17T05:49:39.269Z,1018.85
2017-12-17T05:51:00.707Z,1018.84
2017-12-17T05:52:23.101Z,1018.84
2017-12-17T05:53:44.653Z,1018.9
2017-12-17T05:55:06.354Z,1018.91
2017-12-17T05:56:28.318Z,1018.88
2017-12-17T05:57:49.882Z,1018.91
2017-12-17T05:59:11.851Z,1018.93
2017-12-17T06:00:33.802Z,1018.95
2017-12-17T06:01:55.291Z,1018.94
2017-12-17T06:03:16.970Z,1018.94
2017-12-17T06:04:38.384Z,1018.96
2017-12-17T06:06:00.091Z,1019
2017-12-17T06:07:22.068Z,1018.96
2017-12-17T06:08:44.106Z,1019.04
2017-12-17T06:10:05.830Z,1019.09
2017-12-17T06:11:27.924Z,1019.17
2017-12-17T06:12:49.604Z,1019.1
2017-12-17T06:14:11.604Z,1019.13
2017-12-17T06:15:33.412Z,1019.15
2017-12-17T06:16:55.464Z,1019.2
2017-12-17T06:18:17.168Z,1019.24
2017-12-17T06:19:39.410Z,1019.22
2017-12-17T06:21:00.593Z,1019.26
2017-12-17T06:22:22.009Z,1019.32
2017-12-17T06:23:43.738Z,1019.32
2017-12-17T06:25:05.192Z,1019.39
2017-12-17T06:26:27.237Z,1019.42
2017-12-17T06:27:48.916Z,1019.41
2017-12-17T06:29:10.873Z,1019.4
2017-12-17T06:30:32.845Z,1019.41
2017-12-17T06:31:54.587Z,1019.4
2017-12-17T06:33:16.020Z,1019.38
2017-12-17T06:34:37.722Z,1019.42
2017-12-17T06:35:59.991Z,1019.45
2017-12-17T06:37:21.751Z,1019.44
2017-12-17T06:38:43.445Z,1019.45
2017-12-17T06:40:05.133Z,1019.4
2017-12-17T06:41:27.239Z,1019.4
2017-12-17T06:42:48.945Z,1019.43
2017-12-17T06:44:10.900Z,1019.46
2017-12-17T06:45:32.896Z,1019.48
2017-12-17T06:46:54.616Z,1019.52
2017-12-17T06:48:16.698Z,1019.54
2017-12-17T06:49:38.404Z,1019.55
2017-12-17T06:51:00.078Z,1019.54
2017-12-17T06:52:21.775Z,1019.56
2017-12-17T06:53:43.456Z,1019.6
2017-12-17T06:55:05.472Z,1019.61
2017-12-17T06:56:27.023Z,1019.61
2017-12-17T06:57:48.981Z,1019.59
2017-12-17T06:59:10.784Z,1019.63
2017-12-17T07:00:31.944Z,1019.62
2017-12-17T07:01:54.066Z,1019.63
2017-12-17T07:03:15.780Z,1019.69
2017-12-17T07:04:37.254Z,1019.7
2017-12-17T07:05:59.304Z,1019.76
2017-12-17T07:07:21.376Z,1019.78
2017-12-17T07:08:43.969Z,1019.83
2017-12-17T07:10:05.925Z,1019.89
2017-12-17T07:11:27.893Z,1019.92
2017-12-17T07:12:50.114Z,1019.96
2017-12-17T07:14:11.809Z,1019.93
2017-12-17T07:15:33.764Z,1019.97
2017-12-17T07:16:55.463Z,1020.02
2017-12-17T07:18:17.440Z,1020.03
2017-12-17T07:19:39.452Z,1020.02
2017-12-17T07:21:01.456Z,1020.06
2017-12-17T07:22:23.408Z,1020.04
2017-12-17T07:23:45.398Z,1020.05
2017-12-17T07:25:07.128Z,1020.12
2017-12-17T07:26:28.834Z,1020.14
2017-12-17T07:27:50.965Z,1020.15
2017-12-17T07:29:12.924Z,1020.17
2017-12-17T07:30:34.622Z,1020.17
2017-12-17T07:31:56.311Z,1020.17
2017-12-17T07:33:18.384Z,1020.18
2017-12-17T07:34:40.395Z,1020.21
2017-12-17T07:36:02.116Z,1020.21
2017-12-17T07:37:23.551Z,1020.17
2017-12-17T07:38:45.363Z,1020.19
2017-12-17T07:40:07.307Z,1020.23
2017-12-17T07:41:28.765Z,1020.27
2017-12-17T07:42:50.447Z,1020.27
2017-12-17T07:44:12.142Z,1020.28
2017-12-17T07:45:34.186Z,1020.31
2017-12-17T07:46:56.693Z,1020.35
2017-12-17T07:48:17.864Z,1020.35
2017-12-17T07:49:39.305Z,1020.36
2017-12-17T07:51:01.010Z,1020.44
2017-12-17T07:52:23.229Z,1020.45
2017-12-17T07:53:44.945Z,1020.46
2017-12-17T07:55:06.903Z,1020.48
2017-12-17T07:56:29.159Z,1020.49
2017-12-17T07:57:51.166Z,1020.52
2017-12-17T07:59:13.590Z,1020.56
2017-12-17T08:00:35.566Z,1020.61
2017-12-17T08:01:57.387Z,1020.62
2017-12-17T08:03:18.552Z,1020.6
2017-12-17T08:04:39.983Z,1020.61
2017-12-17T08:06:01.717Z,1020.59
2017-12-17T08:07:24.026Z,1020.59
2017-12-17T08:08:46.057Z,1020.65
2017-12-17T08:10:08.466Z,1020.65
2017-12-17T08:11:30.494Z,1020.69
2017-12-17T08:12:52.768Z,1020.71
2017-12-17T08:14:14.832Z,1020.73
2017-12-17T08:15:36.797Z,1020.74
2017-12-17T08:16:59.038Z,1020.78
2017-12-17T08:18:20.465Z,1020.82
2017-12-17T08:19:42.705Z,1020.86
2017-12-17T08:21:04.482Z,1020.85
2017-12-17T08:22:26.854Z,1020.91
2017-12-17T08:23:48.844Z,1020.98
2017-12-17T08:25:11.154Z,1020.99
2017-12-17T08:26:32.905Z,1020.96
2017-12-17T08:27:54.895Z,1020.96
2017-12-17T08:29:16.584Z,1020.99
2017-12-17T08:30:38.844Z,1021.04
2017-12-17T08:32:01.174Z,1021.03
2017-12-17T08:33:22.610Z,1021.03
2017-12-17T08:34:44.855Z,1021.08
2017-12-17T08:36:07.395Z,1021.11
2017-12-17T08:37:29.364Z,1021.12
2017-12-17T08:38:51.366Z,1021.14
2017-12-17T08:40:13.315Z,1021.16
2017-12-17T08:41:35.298Z,1021.17
2017-12-17T08:42:57.563Z,1021.12
2017-12-17T08:44:19.558Z,1021.19
2017-12-17T08:45:41.601Z,1021.24
2017-12-17T08:47:03.567Z,1021.28
2017-12-17T08:48:25.562Z,1021.28
2017-12-17T08:49:47.802Z,1021.28
2017-12-17T08:51:09.794Z,1021.32
2017-12-17T08:52:32.536Z,1021.29
2017-12-17T08:53:55.946Z,1021.31
2017-12-17T08:55:17.731Z,1021.34
2017-12-17T08:56:39.474Z,1021.34
2017-12-17T08:58:01.597Z,1021.36
2017-12-17T08:59:23.951Z,1021.48
2017-12-17T09:00:45.701Z,1021.49
2017-12-17T09:02:07.716Z,1021.52
2017-12-17T09:03:30.000Z,1021.55
2017-12-17T09:04:51.976Z,1021.6
2017-12-17T09:06:13.728Z,1021.63
2017-12-17T09:07:35.707Z,1021.65
2017-12-17T09:08:57.487Z,1021.64
2017-12-17T09:10:19.280Z,1021.63
2017-12-17T09:11:40.439Z,1021.66
2017-12-17T09:13:02.156Z,1021.66
2017-12-17T09:14:24.446Z,1021.71
2017-12-17T09:15:46.416Z,1021.73
2017-12-17T09:17:08.673Z,1021.73
2017-12-17T09:18:30.423Z,1021.77
2017-12-17T09:19:52.433Z,1021.81
2017-12-17T09:21:14.495Z,1021.86
2017-12-17T09:22:36.496Z,1021.87
2017-12-17T09:23:58.461Z,1021.91
2017-12-17T09:25:20.453Z,1021.93
2017-12-17T09:26:42.462Z,1021.93
2017-12-17T09:28:04.474Z,1021.98
2017-12-17T09:29:26.716Z,1022.02
2017-12-17T09:30:48.947Z,1022.02
2017-12-17T09:32:11.018Z,1022.09
2017-12-17T09:33:33.280Z,1022.09
2017-12-17T09:34:55.276Z,1022.09
2017-12-17T09:36:17.327Z,1022.09
2017-12-17T09:37:39.053Z,1022.11
2017-12-17T09:39:01.164Z,1022.18
2017-12-17T09:40:23.164Z,1022.15
2017-12-17T09:41:45.261Z,1022.2
2017-12-17T09:43:07.527Z,1022.27
2017-12-17T09:44:29.522Z,1022.23
2017-12-17T09:45:51.791Z,1022.24
2017-12-17T09:47:14.045Z,1022.22
2017-12-17T09:48:36.111Z,1022.24
2017-12-17T09:49:57.818Z,1022.32
2017-12-17T09:51:19.796Z,1022.28
2017-12-17T09:52:41.828Z,1022.32
2017-12-17T09:54:03.961Z,1022.32
2017-12-17T09:55:25.685Z,1022.3
2017-12-17T09:56:47.406Z,1022.31
2017-12-17T09:58:09.407Z,1022.31
2017-12-17T09:59:31.666Z,1022.34
2017-12-17T10:00:53.131Z,1022.42
2017-12-17T10:02:15.380Z,1022.36
2017-12-17T10:03:37.701Z,1022.43
2017-12-17T10:04:59.402Z,1022.43
2017-12-17T10:06:21.405Z,1022.41
2017-12-17T10:07:43.676Z,1022.4
2017-12-17T10:09:05.963Z,1022.39
2017-12-17T10:10:27.763Z,1022.36
2017-12-17T10:11:49.032Z,1022.34
2017-12-17T10:13:11.064Z,1022.33
2017-12-17T10:14:33.106Z,1022.31
2017-12-17T10:15:55.179Z,1022.32
2017-12-17T10:17:17.161Z,1022.3
2017-12-17T10:18:39.413Z,1022.31
2017-12-17T10:20:00.949Z,1022.32
2017-12-17T10:21:23.022Z,1022.36
2017-12-17T10:22:44.738Z,1022.34
2017-12-17T10:24:07.129Z,1022.29
2017-12-17T10:25:28.565Z,1022.31
2017-12-17T10:26:50.814Z,1022.28
2017-12-17T10:28:12.830Z,1022.27
2017-12-17T10:29:34.796Z,1022.25
2017-12-17T10:30:56.506Z,1022.22
2017-12-17T10:32:18.767Z,1022.28
2017-12-17T10:33:40.855Z,1022.27
2017-12-17T10:35:02.656Z,1022.22
2017-12-17T10:36:24.724Z,1022.18
2017-12-17T10:37:46.950Z,1022.18
2017-12-17T10:39:08.643Z,1022.21
2017-12-17T10:40:30.422Z,1022.18
2017-12-17T10:41:52.427Z,1022.16
2017-12-17T10:43:14.135Z,1022.17
2017-12-17T10:44:36.144Z,1022.17
2017-12-17T10:45:58.409Z,1022.18
2017-12-17T10:47:20.403Z,1022.14
2017-12-17T10:48:42.708Z,1022.17
2017-12-17T10:50:04.411Z,1022.15
2017-12-17T10:51:26.673Z,1022.17
2017-12-17T10:52:48.663Z,1022.22
2017-12-17T10:54:10.130Z,1022.22
2017-12-17T10:55:32.152Z,1022.25
2017-12-17T10:56:54.280Z,1022.16
2017-12-17T10:58:15.753Z,1022.18
2017-12-17T10:59:38.055Z,1022.2
2017-12-17T11:01:00.055Z,1022.16
2017-12-17T11:02:21.781Z,1022.09
2017-12-17T11:03:44.099Z,1022.13
2017-12-17T11:05:06.112Z,1022.15
2017-12-17T11:06:27.832Z,1022.09
2017-12-17T11:07:49.823Z,1022.11
2017-12-17T11:09:11.413Z,1022.11
2017-12-17T11:10:33.153Z,1022.13
2017-12-17T11:11:54.611Z,1022.14
2017-12-17T11:13:16.893Z,1022.17
2017-12-17T11:14:38.873Z,1022.13
2017-12-17T11:16:00.878Z,1022.13
2017-12-17T11:17:23.155Z,1022.16
2017-12-17T11:18:44.333Z,1022.12
2017-12-17T11:20:06.042Z,1022.19
2017-12-17T11:21:28.105Z,1022.13
2017-12-17T11:22:51.513Z,1022.17
2017-12-17T11:24:13.516Z,1022.13
2017-12-17T11:25:35.595Z,1022.17
2017-12-17T11:26:57.707Z,1022.14
2017-12-17T11:28:19.707Z,1022.21
2017-12-17T11:29:41.274Z,1022.17
2017-12-17T11:31:03.564Z,1022.22
2017-12-17T11:32:25.063Z,1022.21
2017-12-17T11:33:47.111Z,1022.17
2017-12-17T11:35:08.824Z,1022.16
2017-12-17T11:36:30.913Z,1022.15
2017-12-17T11:37:52.914Z,1022.17
2017-12-17T11:39:14.924Z,1022.17
2017-12-17T11:40:36.983Z,1022.19
2017-12-17T11:41:59.291Z,1022.18
2017-12-17T11:43:21.318Z,1022.18
2017-12-17T11:44:43.573Z,1022.2
2017-12-17T11:46:05.859Z,1022.2
2017-12-17T11:47:28.325Z,1022.22
2017-12-17T11:48:49.983Z,1022.21
2017-12-17T11:50:11.983Z,1022.25
2017-12-17T11:51:34.232Z,1022.23
2017-12-17T11:52:55.957Z,1022.29
2017-12-17T11:54:18.312Z,1022.25
2017-12-17T11:55:40.576Z,1022.24
2017-12-17T11:57:02.565Z,1022.3
2017-12-17T11:58:24.950Z,1022.31
2017-12-17T11:59:46.485Z,1022.31
2017-12-17T12:01:08.216Z,1022.35
2017-12-17T12:02:30.284Z,1022.37
2017-12-17T12:03:51.736Z,1022.42
2017-12-17T12:05:14.006Z,1022.38
2017-12-17T12:06:36.025Z,1022.4
2017-12-17T12:07:58.288Z,1022.4
2017-12-17T12:09:20.038Z,1022.41
2017-12-17T12:10:42.317Z,1022.33
2017-12-17T12:12:04.764Z,1022.35
2017-12-17T12:13:26.737Z,1022.33
2017-12-17T12:14:49.155Z,1022.34
2017-12-17T12:16:11.408Z,1022.33
2017-12-17T12:17:33.397Z,1022.33
2017-12-17T12:18:55.687Z,1022.42
2017-12-17T12:20:18.281Z,1022.4
2017-12-17T12:21:40.287Z,1022.36
2017-12-17T12:23:02.118Z,1022.35
2017-12-17T12:24:24.427Z,1022.41
2017-12-17T12:25:46.433Z,1022.36
2017-12-17T12:27:08.226Z,1022.38
2017-12-17T12:28:30.372Z,1022.37
2017-12-17T12:29:52.703Z,1022.37
2017-12-17T12:31:14.865Z,1022.41
2017-12-17T12:32:36.468Z,1022.41
2017-12-17T12:33:58.805Z,1022.4
2017-12-17T12:35:20.587Z,1022.36
2017-12-17T12:36:42.620Z,1022.39
2017-12-17T12:38:04.871Z,1022.39
2017-12-17T12:39:27.232Z,1022.39
2017-12-17T12:40:49.507Z,1022.38
2017-12-17T12:42:11.242Z,1022.4
2017-12-17T12:43:33.263Z,1022.41
2017-12-17T12:44:54.970Z,1022.41
2017-12-17T12:46:16.983Z,1022.43
2017-12-17T12:47:39.044Z,1022.43
2017-12-17T12:49:01.036Z,1022.39
2017-12-17T12:50:23.324Z,1022.41
2017-12-17T12:51:45.108Z,1022.39
2017-12-17T12:53:07.325Z,1022.39
2017-12-17T12:54:29.338Z,1022.35
2017-12-17T12:55:51.087Z,1022.35
2017-12-17T12:57:12.382Z,1022.36
2017-12-17T12:58:34.476Z,1022.33
2017-12-17T12:59:56.179Z,1022.29
2017-12-17T13:01:18.448Z,1022.33
2017-12-17T13:02:40.163Z,1022.28
2017-12-17T13:04:02.221Z,1022.29
2017-12-17T13:05:24.222Z,1022.3
2017-12-17T13:06:46.548Z,1022.33
2017-12-17T13:08:08.536Z,1022.33
2017-12-17T13:09:30.797Z,1022.33
2017-12-17T13:10:52.325Z,1022.34
2017-12-17T13:12:14.580Z,1022.29
2017-12-17T13:13:36.406Z,1022.33
2017-12-17T13:14:58.459Z,1022.33
2017-12-17T13:16:20.525Z,1022.36
2017-12-17T13:17:41.986Z,1022.29
2017-12-17T13:19:03.695Z,1022.31
2017-12-17T13:20:25.663Z,1022.4
2017-12-17T13:21:47.658Z,1022.41
2017-12-17T13:23:09.761Z,1022.39
2017-12-17T13:24:31.802Z,1022.42
2017-12-17T13:25:53.796Z,1022.46
2017-12-17T13:27:16.184Z,1022.44
2017-12-17T13:28:38.176Z,1022.45
2017-12-17T13:29:59.918Z,1022.45
2017-12-17T13:31:22.247Z,1022.46
2017-12-17T13:32:44.308Z,1022.51
2017-12-17T13:34:06.293Z,1022.49
2017-12-17T13:35:28.316Z,1022.49
2017-12-17T13:36:50.804Z,1022.45
2017-12-17T13:38:12.264Z,1022.52
2017-12-17T13:39:34.245Z,1022.5
2017-12-17T13:40:56.264Z,1022.48
2017-12-17T13:42:18.267Z,1022.51
2017-12-17T13:43:40.097Z,1022.51
2017-12-17T13:45:02.093Z,1022.56
2017-12-17T13:46:24.095Z,1022.55
2017-12-17T13:47:45.383Z,1022.52
2017-12-17T13:49:07.164Z,1022.5
2017-12-17T13:50:28.945Z,1022.58
2017-12-17T13:51:51.288Z,1022.56
2017-12-17T13:53:13.935Z,1022.55
2017-12-17T13:54:35.368Z,1022.59
2017-12-17T13:55:57.087Z,1022.6
2017-12-17T13:57:19.401Z,1022.62
2017-12-17T13:58:41.337Z,1022.64
2017-12-17T14:00:03.514Z,1022.64
2017-12-17T14:01:26.064Z,1022.66
2017-12-17T14:02:48.324Z,1022.7
2017-12-17T14:04:10.675Z,1022.7
2017-12-17T14:05:33.022Z,1022.74
2017-12-17T14:06:55.063Z,1022.77
2017-12-17T14:08:17.044Z,1022.78
2017-12-17T14:09:39.407Z,1022.78
2017-12-17T14:11:01.641Z,1022.75
2017-12-17T14:12:23.619Z,1022.82
2017-12-17T14:13:45.618Z,1022.8
2017-12-17T14:15:07.536Z,1022.8
2017-12-17T14:16:29.883Z,1022.79
2017-12-17T14:17:51.345Z,1022.82
2017-12-17T14:19:13.695Z,1022.82
2017-12-17T14:20:35.502Z,1022.81
2017-12-17T14:21:57.137Z,1022.82
2017-12-17T14:23:19.458Z,1022.81
2017-12-17T14:24:41.044Z,1022.8
2017-12-17T14:26:03.094Z,1022.75
2017-12-17T14:27:25.324Z,1022.77
2017-12-17T14:28:47.010Z,1022.77
2017-12-17T14:30:09.691Z,1022.79
2017-12-17T14:31:33.648Z,1022.81
2017-12-17T14:32:56.688Z,1022.82
2017-12-17T14:34:19.683Z,1022.77
2017-12-17T14:35:42.101Z,1022.81
2017-12-17T14:37:04.398Z,1022.81
2017-12-17T14:38:26.735Z,1022.86
2017-12-17T14:39:48.443Z,1022.85
2017-12-17T14:41:10.484Z,1022.84
2017-12-17T14:42:32.306Z,1022.89
2017-12-17T14:43:53.837Z,1022.93
2017-12-17T14:45:15.559Z,1022.91
2017-12-17T14:46:37.264Z,1022.91
2017-12-17T14:47:59.542Z,1022.87
2017-12-17T14:49:21.267Z,1022.89
2017-12-17T14:50:43.583Z,1022.91
2017-12-17T14:52:05.838Z,1022.98
2017-12-17T14:53:27.572Z,1022.94
2017-12-17T14:54:49.895Z,1022.95
2017-12-17T14:56:11.931Z,1022.95
2017-12-17T14:57:34.322Z,1022.95
2017-12-17T14:58:56.201Z,1023.03
2017-12-17T15:00:18.532Z,1022.98
2017-12-17T15:01:40.571Z,1023.02
2017-12-17T15:03:02.386Z,1023.08
2017-12-17T15:04:24.633Z,1023.02
2017-12-17T15:05:46.629Z,1023.05
2017-12-17T15:07:08.933Z,1023.07
2017-12-17T15:08:30.947Z,1023.06
2017-12-17T15:09:52.913Z,1023.02
2017-12-17T15:11:14.901Z,1022.97
2017-12-17T15:12:36.880Z,1022.98
2017-12-17T15:13:58.901Z,1022.94
2017-12-17T15:15:21.177Z,1022.97
2017-12-17T15:16:43.159Z,1022.98
2017-12-17T15:18:05.401Z,1022.96
2017-12-17T15:19:27.340Z,1023
2017-12-17T15:20:49.372Z,1023
2017-12-17T15:22:11.644Z,1023
2017-12-17T15:23:33.381Z,1022.97
2017-12-17T15:24:55.483Z,1022.99
2017-12-17T15:26:17.571Z,1023
2017-12-17T15:27:39.993Z,1023.02
2017-12-17T15:29:01.986Z,1022.98
2017-12-17T15:30:24.178Z,1022.99
2017-12-17T15:31:46.280Z,1022.97
2017-12-17T15:33:08.435Z,1022.93
2017-12-17T15:34:30.709Z,1022.99
2017-12-17T15:35:52.155Z,1022.98
2017-12-17T15:37:13.892Z,1022.9
2017-12-17T15:38:35.748Z,1022.96
2017-12-17T15:39:57.798Z,1022.97
2017-12-17T15:41:19.538Z,1022.94
2017-12-17T15:42:41.943Z,1022.96
2017-12-17T15:44:04.025Z,1022.97
2017-12-17T15:45:26.286Z,1022.91
2017-12-17T15:46:48.552Z,1022.83
2017-12-17T15:48:10.291Z,1022.9
2017-12-17T15:49:32.582Z,1022.86
2017-12-17T15:50:54.562Z,1022.93
2017-12-17T15:52:16.577Z,1022.86
2017-12-17T15:53:39.147Z,1022.88
2017-12-17T15:55:00.942Z,1022.79
2017-12-17T15:56:23.077Z,1022.85
2017-12-17T15:57:44.594Z,1022.86
2017-12-17T15:59:06.687Z,1022.84
2017-12-17T16:00:28.427Z,1022.87
2017-12-17T16:01:50.199Z,1022.9
2017-12-17T16:03:12.484Z,1022.89
2017-12-17T16:04:34.707Z,1022.87
2017-12-17T16:05:57.135Z,1022.91
2017-12-17T16:07:19.164Z,1022.84
2017-12-17T16:08:41.450Z,1022.86
2017-12-17T16:10:03.657Z,1022.83
2017-12-17T16:11:25.923Z,1022.84
2017-12-17T16:12:48.321Z,1022.84
2017-12-17T16:14:10.042Z,1022.91
2017-12-17T16:15:31.782Z,1022.87
2017-12-17T16:16:53.834Z,1022.9
2017-12-17T16:18:16.143Z,1022.89
2017-12-17T16:19:37.866Z,1022.83
2017-12-17T16:20:59.615Z,1022.77
2017-12-17T16:22:21.890Z,1022.77
2017-12-17T16:23:43.433Z,1022.77
2017-12-17T16:25:05.744Z,1022.78
2017-12-17T16:26:27.994Z,1022.83
2017-12-17T16:27:50.275Z,1022.77
2017-12-17T16:29:11.995Z,1022.76
2017-12-17T16:30:34.267Z,1022.83
2017-12-17T16:31:56.952Z,1022.84
2017-12-17T16:33:19.075Z,1022.83
2017-12-17T16:34:41.051Z,1022.8